createdAt,value
2023-09-27T00:00:32.284Z,1013.40
2023-09-27T00:01:04.780Z,1013.41
2023-09-27T00:01:37.307Z,1013.43
2023-09-27T00:02:09.816Z,1013.45
2023-09-27T00:02:42.353Z,1013.45
2023-09-27T00:03:14.799Z,1013.47
2023-09-27T00:03:47.267Z,1013.45
2023-09-27T00:04:19.845Z,1013.47
2023-09-27T00:04:52.313Z,1013.45
2023-09-27T00:05:24.833Z,1013.43
2023-09-27T00:05:57.221Z,1013.42
2023-09-27T00:06:29.651Z,1013.41
2023-09-27T00:07:02.117Z,1013.41
2023-09-27T00:07:34.674Z,1013.38
2023-09-27T00:08:07.122Z,1013.37
2023-09-27T00:08:39.618Z,1013.34
2023-09-27T00:09:12.131Z,1013.32
2023-09-27T00:09:44.600Z,1013.30
2023-09-27T00:10:17.110Z,1013.29
2023-09-27T00:10:49.703Z,1013.27
2023-09-27T00:11:22.210Z,1013.25
2023-09-27T00:11:54.691Z,1013.23
2023-09-27T00:12:27.153Z,1013.21
2023-09-27T00:12:59.627Z,1013.18
2023-09-27T00:13:32.201Z,1013.18
2023-09-27T00:14:04.752Z,1013.17
2023-09-27T00:14:37.207Z,1013.19
2023-09-27T00:15:09.686Z,1013.19
2023-09-27T00:15:42.168Z,1013.19
2023-09-27T00:16:14.649Z,1013.20
2023-09-27T00:16:47.132Z,1013.21
2023-09-27T00:17:19.701Z,1013.23
2023-09-27T00:17:52.164Z,1013.24
2023-09-27T00:18:24.685Z,1013.24
2023-09-27T00:18:57.297Z,1013.28
2023-09-27T00:19:29.696Z,1013.27
2023-09-27T00:20:02.241Z,1013.26
2023-09-27T00:20:34.676Z,1013.27
2023-09-27T00:21:07.134Z,1013.29
2023-09-27T00:21:39.615Z,1013.29
2023-09-27T00:22:12.022Z,1013.28
2023-09-27T00:22:44.534Z,1013.30
2023-09-27T00:23:17.128Z,1013.30
2023-09-27T00:23:49.580Z,1013.31
2023-09-27T00:24:22.054Z,1013.31
2023-09-27T00:24:54.479Z,1013.30
2023-09-27T00:25:26.967Z,1013.30
2023-09-27T00:25:59.436Z,1013.29
2023-09-27T00:26:31.943Z,1013.29
2023-09-27T00:27:04.411Z,1013.30
2023-09-27T00:27:36.939Z,1013.28
2023-09-27T00:28:09.392Z,1013.26
2023-09-27T00:28:41.840Z,1013.26
2023-09-27T00:29:14.357Z,1013.25
2023-09-27T00:29:46.906Z,1013.24
2023-09-27T00:30:19.360Z,1013.25
2023-09-27T00:30:51.874Z,1013.25
2023-09-27T00:31:24.466Z,1013.26
2023-09-27T00:31:57.047Z,1013.27
2023-09-27T00:32:29.552Z,1013.27
2023-09-27T00:33:02.077Z,1013.26
2023-09-27T00:33:34.519Z,1013.27
2023-09-27T00:34:06.939Z,1013.28
2023-09-27T00:34:39.442Z,1013.28
2023-09-27T00:35:11.903Z,1013.27
2023-09-27T00:35:44.343Z,1013.26
2023-09-27T00:36:16.833Z,1013.28
2023-09-27T00:36:49.355Z,1013.28
2023-09-27T00:37:21.832Z,1013.28
2023-09-27T00:37:54.386Z,1013.27
2023-09-27T00:38:26.895Z,1013.28
2023-09-27T00:38:59.297Z,1013.29
2023-09-27T00:39:31.816Z,1013.31
2023-09-27T00:40:04.387Z,1013.32
2023-09-27T00:40:36.883Z,1013.33
2023-09-27T00:41:09.503Z,1013.34
2023-09-27T00:41:41.895Z,1013.34
2023-09-27T00:42:14.356Z,1013.34
2023-09-27T00:42:46.810Z,1013.34
2023-09-27T00:43:19.332Z,1013.34
2023-09-27T00:43:51.865Z,1013.33
2023-09-27T00:44:24.329Z,1013.33
2023-09-27T00:44:56.718Z,1013.32
2023-09-27T00:45:29.278Z,1013.31
2023-09-27T00:46:01.845Z,1013.29
2023-09-27T00:46:34.317Z,1013.28
2023-09-27T00:47:06.788Z,1013.28
2023-09-27T00:47:39.212Z,1013.27
2023-09-27T00:48:11.720Z,1013.28
2023-09-27T00:48:44.223Z,1013.28
2023-09-27T00:49:16.774Z,1013.28
2023-09-27T00:49:49.236Z,1013.28
2023-09-27T00:50:21.729Z,1013.30
2023-09-27T00:50:54.242Z,1013.29
2023-09-27T00:51:26.702Z,1013.29
2023-09-27T00:51:59.156Z,1013.30
2023-09-27T00:52:31.615Z,1013.29
2023-09-27T00:53:04.106Z,1013.28
2023-09-27T00:53:36.567Z,1013.31
2023-09-27T00:54:09.052Z,1013.29
2023-09-27T00:54:41.476Z,1013.29
2023-09-27T00:55:14.063Z,1013.30
2023-09-27T00:55:46.560Z,1013.30
2023-09-27T00:56:19.069Z,1013.31
2023-09-27T00:56:51.562Z,1013.32
2023-09-27T00:57:24.077Z,1013.30
2023-09-27T00:57:56.689Z,1013.31
2023-09-27T00:58:29.186Z,1013.32
2023-09-27T00:59:01.747Z,1013.33
2023-09-27T00:59:34.249Z,1013.33
2023-09-27T01:00:06.668Z,1013.32
2023-09-27T01:00:39.144Z,1013.33
2023-09-27T01:01:11.733Z,1013.33
2023-09-27T01:01:44.149Z,1013.36
2023-09-27T01:02:16.767Z,1013.37
2023-09-27T01:02:49.276Z,1013.36
2023-09-27T01:03:21.745Z,1013.38
2023-09-27T01:03:54.185Z,1013.38
2023-09-27T01:04:26.739Z,1013.40
2023-09-27T01:04:59.212Z,1013.42
2023-09-27T01:05:31.933Z,1013.44
2023-09-27T01:06:04.528Z,1013.47
2023-09-27T01:06:36.896Z,1013.46
2023-09-27T01:07:09.405Z,1013.48
2023-09-27T01:07:41.954Z,1013.50
2023-09-27T01:08:14.445Z,1013.50
2023-09-27T01:08:46.898Z,1013.49
2023-09-27T01:09:19.359Z,1013.49
2023-09-27T01:09:51.829Z,1013.48
2023-09-27T01:10:24.304Z,1013.50
2023-09-27T01:10:56.808Z,1013.51
2023-09-27T01:11:29.335Z,1013.50
2023-09-27T01:12:01.822Z,1013.51
2023-09-27T01:12:34.381Z,1013.52
2023-09-27T01:13:06.891Z,1013.53
2023-09-27T01:13:39.477Z,1013.54
2023-09-27T01:14:12.012Z,1013.53
2023-09-27T01:14:44.427Z,1013.54
2023-09-27T01:15:16.879Z,1013.54
2023-09-27T01:15:49.370Z,1013.54
2023-09-27T01:16:21.883Z,1013.55
2023-09-27T01:16:54.365Z,1013.56
2023-09-27T01:17:26.927Z,1013.57
2023-09-27T01:17:59.425Z,1013.57
2023-09-27T01:18:31.897Z,1013.58
2023-09-27T01:19:04.425Z,1013.59
2023-09-27T01:19:36.914Z,1013.60
2023-09-27T01:20:09.434Z,1013.60
2023-09-27T01:20:41.859Z,1013.60
2023-09-27T01:21:14.345Z,1013.60
2023-09-27T01:21:46.844Z,1013.61
2023-09-27T01:22:19.376Z,1013.63
2023-09-27T01:22:51.992Z,1013.63
2023-09-27T01:23:24.455Z,1013.64
2023-09-27T01:23:56.921Z,1013.64
2023-09-27T01:24:29.367Z,1013.66
2023-09-27T01:25:01.825Z,1013.66
2023-09-27T01:25:34.331Z,1013.67
2023-09-27T01:26:06.823Z,1013.67
2023-09-27T01:26:39.254Z,1013.68
2023-09-27T01:27:11.731Z,1013.69
2023-09-27T01:27:44.275Z,1013.70
2023-09-27T01:28:16.799Z,1013.71
2023-09-27T01:28:49.294Z,1013.69
2023-09-27T01:29:21.868Z,1013.68
2023-09-27T01:29:54.305Z,1013.70
2023-09-27T01:30:26.749Z,1013.68
2023-09-27T01:31:00.144Z,1013.69
2023-09-27T01:31:32.661Z,1013.68
2023-09-27T01:32:05.191Z,1013.66
2023-09-27T01:32:37.783Z,1013.68
2023-09-27T01:33:10.264Z,1013.66
2023-09-27T01:33:42.676Z,1013.67
2023-09-27T01:34:15.202Z,1013.68
2023-09-27T01:34:47.702Z,1013.66
2023-09-27T01:35:20.286Z,1013.65
2023-09-27T01:35:52.713Z,1013.65
2023-09-27T01:36:25.194Z,1013.65
2023-09-27T01:36:57.708Z,1013.66
2023-09-27T01:37:30.152Z,1013.66
2023-09-27T01:38:02.642Z,1013.66
2023-09-27T01:38:35.064Z,1013.67
2023-09-27T01:39:07.481Z,1013.68
2023-09-27T01:39:39.933Z,1013.68
2023-09-27T01:40:12.390Z,1013.69
2023-09-27T01:40:44.914Z,1013.68
2023-09-27T01:41:17.423Z,1013.69
2023-09-27T01:41:49.834Z,1013.69
2023-09-27T01:42:22.326Z,1013.69
2023-09-27T01:42:54.746Z,1013.68
2023-09-27T01:43:27.251Z,1013.70
2023-09-27T01:43:59.803Z,1013.70
2023-09-27T01:44:32.333Z,1013.71
2023-09-27T01:45:04.774Z,1013.71
2023-09-27T01:45:37.285Z,1013.71
2023-09-27T01:46:09.772Z,1013.71
2023-09-27T01:46:42.134Z,1013.72
2023-09-27T01:47:14.704Z,1013.70
2023-09-27T01:47:47.232Z,1013.73
2023-09-27T01:48:19.649Z,1013.73
2023-09-27T01:48:52.367Z,1013.72
2023-09-27T01:49:24.610Z,1013.72
2023-09-27T01:49:57.066Z,1013.71
2023-09-27T01:50:29.562Z,1013.72
2023-09-27T01:51:02.038Z,1013.72
2023-09-27T01:51:34.463Z,1013.70
2023-09-27T01:52:06.994Z,1013.69
2023-09-27T01:52:39.507Z,1013.69
2023-09-27T01:53:12.099Z,1013.67
2023-09-27T01:53:44.576Z,1013.65
2023-09-27T01:54:17.083Z,1013.64
2023-09-27T01:54:49.605Z,1013.65
2023-09-27T01:55:22.046Z,1013.62
2023-09-27T01:55:54.538Z,1013.61
2023-09-27T01:56:27.121Z,1013.60
2023-09-27T01:56:59.414Z,1013.60
2023-09-27T01:57:31.952Z,1013.61
2023-09-27T01:58:04.454Z,1013.61
2023-09-27T01:58:36.959Z,1013.63
2023-09-27T01:59:10.465Z,1013.62
2023-09-27T01:59:42.862Z,1013.63
2023-09-27T02:00:15.318Z,1013.63
2023-09-27T02:00:47.804Z,1013.65
2023-09-27T02:01:20.339Z,1013.65
2023-09-27T02:01:52.895Z,1013.65
2023-09-27T02:02:25.286Z,1013.66
2023-09-27T02:02:57.865Z,1013.66
2023-09-27T02:03:30.199Z,1013.68
2023-09-27T02:04:02.691Z,1013.71
2023-09-27T02:04:35.134Z,1013.73
2023-09-27T02:05:07.736Z,1013.74
2023-09-27T02:05:40.319Z,1013.76
2023-09-27T02:06:12.698Z,1013.76
2023-09-27T02:06:45.201Z,1013.74
2023-09-27T02:07:17.701Z,1013.74
2023-09-27T02:07:50.150Z,1013.74
2023-09-27T02:08:22.779Z,1013.74
2023-09-27T02:08:55.457Z,1013.74
2023-09-27T02:09:27.739Z,1013.74
2023-09-27T02:10:00.258Z,1013.75
2023-09-27T02:10:32.775Z,1013.75
2023-09-27T02:11:05.372Z,1013.76
2023-09-27T02:11:37.761Z,1013.78
2023-09-27T02:12:10.228Z,1013.79
2023-09-27T02:12:42.689Z,1013.80
2023-09-27T02:13:15.129Z,1013.81
2023-09-27T02:13:47.638Z,1013.83
2023-09-27T02:14:20.154Z,1013.83
2023-09-27T02:14:52.620Z,1013.85
2023-09-27T02:15:25.104Z,1013.85
2023-09-27T02:15:57.641Z,1013.84
2023-09-27T02:16:30.160Z,1013.82
2023-09-27T02:17:02.617Z,1013.80
2023-09-27T02:17:35.132Z,1013.80
2023-09-27T02:18:07.576Z,1013.79
2023-09-27T02:18:40.018Z,1013.77
2023-09-27T02:19:12.527Z,1013.77
2023-09-27T02:19:45.081Z,1013.76
2023-09-27T02:20:17.588Z,1013.77
2023-09-27T02:20:50.025Z,1013.77
2023-09-27T02:21:22.522Z,1013.78
2023-09-27T02:21:54.974Z,1013.80
2023-09-27T02:22:27.442Z,1013.83
2023-09-27T02:22:59.910Z,1013.83
2023-09-27T02:23:32.438Z,1013.83
2023-09-27T02:24:04.862Z,1013.83
2023-09-27T02:24:37.326Z,1013.82
2023-09-27T02:25:09.785Z,1013.81
2023-09-27T02:25:42.323Z,1013.80
2023-09-27T02:26:14.819Z,1013.79
2023-09-27T02:26:47.269Z,1013.76
2023-09-27T02:27:19.784Z,1013.78
2023-09-27T02:27:52.289Z,1013.76
2023-09-27T02:28:24.745Z,1013.76
2023-09-27T02:28:57.236Z,1013.74
2023-09-27T02:29:29.790Z,1013.76
2023-09-27T02:30:02.208Z,1013.75
2023-09-27T02:30:34.758Z,1013.75
2023-09-27T02:31:07.402Z,1013.76
2023-09-27T02:31:40.034Z,1013.76
2023-09-27T02:32:12.513Z,1013.76
2023-09-27T02:32:45.205Z,1013.74
2023-09-27T02:33:17.653Z,1013.71
2023-09-27T02:33:50.162Z,1013.71
2023-09-27T02:34:22.671Z,1013.68
2023-09-27T02:34:55.184Z,1013.68
2023-09-27T02:35:27.722Z,1013.66
2023-09-27T02:36:00.208Z,1013.64
2023-09-27T02:36:32.663Z,1013.65
2023-09-27T02:37:05.109Z,1013.66
2023-09-27T02:37:37.598Z,1013.64
2023-09-27T02:38:10.060Z,1013.65
2023-09-27T02:38:42.501Z,1013.68
2023-09-27T02:39:14.933Z,1013.69
2023-09-27T02:39:47.406Z,1013.67
2023-09-27T02:40:19.932Z,1013.65
2023-09-27T02:40:52.495Z,1013.65
2023-09-27T02:41:25.055Z,1013.63
2023-09-27T02:41:57.593Z,1013.64
2023-09-27T02:42:30.145Z,1013.63
2023-09-27T02:43:02.693Z,1013.63
2023-09-27T02:43:35.224Z,1013.61
2023-09-27T02:44:07.701Z,1013.61
2023-09-27T02:44:40.253Z,1013.62
2023-09-27T02:45:12.776Z,1013.62
2023-09-27T02:45:45.214Z,1013.63
2023-09-27T02:46:17.732Z,1013.63
2023-09-27T02:46:50.251Z,1013.63
2023-09-27T02:47:22.800Z,1013.64
2023-09-27T02:47:55.297Z,1013.65
2023-09-27T02:48:27.767Z,1013.65
2023-09-27T02:49:00.267Z,1013.64
2023-09-27T02:49:32.756Z,1013.65
2023-09-27T02:50:05.249Z,1013.66
2023-09-27T02:50:37.768Z,1013.66
2023-09-27T02:51:10.253Z,1013.65
2023-09-27T02:51:42.749Z,1013.65
2023-09-27T02:52:15.240Z,1013.65
2023-09-27T02:52:47.760Z,1013.66
2023-09-27T02:53:20.229Z,1013.65
2023-09-27T02:53:52.718Z,1013.64
2023-09-27T02:54:25.268Z,1013.64
2023-09-27T02:54:57.827Z,1013.64
2023-09-27T02:55:30.323Z,1013.65
2023-09-27T02:56:02.874Z,1013.64
2023-09-27T02:56:35.345Z,1013.62
2023-09-27T02:57:07.804Z,1013.63
2023-09-27T02:57:40.313Z,1013.60
2023-09-27T02:58:12.727Z,1013.62
2023-09-27T02:58:45.239Z,1013.61
2023-09-27T02:59:17.760Z,1013.59
2023-09-27T02:59:50.287Z,1013.57
2023-09-27T03:00:22.852Z,1013.58
2023-09-27T03:00:55.362Z,1013.57
2023-09-27T03:01:27.918Z,1013.54
2023-09-27T03:02:00.366Z,1013.55
2023-09-27T03:02:32.928Z,1013.51
2023-09-27T03:03:05.328Z,1013.50
2023-09-27T03:03:37.784Z,1013.48
2023-09-27T03:04:10.261Z,1013.46
2023-09-27T03:04:42.763Z,1013.45
2023-09-27T03:05:15.306Z,1013.45
2023-09-27T03:05:47.798Z,1013.44
2023-09-27T03:06:20.328Z,1013.44
2023-09-27T03:06:52.862Z,1013.44
2023-09-27T03:07:25.316Z,1013.43
2023-09-27T03:07:57.782Z,1013.44
2023-09-27T03:08:30.330Z,1013.43
2023-09-27T03:09:02.771Z,1013.42
2023-09-27T03:09:35.261Z,1013.41
2023-09-27T03:10:07.781Z,1013.41
2023-09-27T03:10:40.296Z,1013.40
2023-09-27T03:11:12.824Z,1013.41
2023-09-27T03:11:45.262Z,1013.40
2023-09-27T03:12:17.741Z,1013.38
2023-09-27T03:12:50.194Z,1013.38
2023-09-27T03:13:22.729Z,1013.38
2023-09-27T03:13:55.285Z,1013.37
2023-09-27T03:14:27.765Z,1013.35
2023-09-27T03:15:00.231Z,1013.34
2023-09-27T03:15:32.794Z,1013.34
2023-09-27T03:16:05.203Z,1013.35
2023-09-27T03:16:37.704Z,1013.35
2023-09-27T03:17:10.276Z,1013.36
2023-09-27T03:17:42.787Z,1013.37
2023-09-27T03:18:15.217Z,1013.36
2023-09-27T03:18:47.663Z,1013.35
2023-09-27T03:19:20.126Z,1013.35
2023-09-27T03:19:52.620Z,1013.36
2023-09-27T03:20:25.187Z,1013.36
2023-09-27T03:20:57.639Z,1013.35
2023-09-27T03:21:30.115Z,1013.34
2023-09-27T03:22:02.590Z,1013.35
2023-09-27T03:22:35.090Z,1013.34
2023-09-27T03:23:07.611Z,1013.34
2023-09-27T03:23:40.112Z,1013.34
2023-09-27T03:24:12.601Z,1013.34
2023-09-27T03:24:45.108Z,1013.34
2023-09-27T03:25:17.610Z,1013.34
2023-09-27T03:25:50.098Z,1013.33
2023-09-27T03:26:22.569Z,1013.34
2023-09-27T03:26:55.005Z,1013.34
2023-09-27T03:27:27.448Z,1013.35
2023-09-27T03:28:00.049Z,1013.34
2023-09-27T03:28:32.568Z,1013.33
2023-09-27T03:29:05.169Z,1013.35
2023-09-27T03:29:37.660Z,1013.34
2023-09-27T03:30:10.166Z,1013.35
2023-09-27T03:30:42.617Z,1013.34
2023-09-27T03:31:15.171Z,1013.35
2023-09-27T03:31:47.602Z,1013.35
2023-09-27T03:32:20.068Z,1013.35
2023-09-27T03:32:52.581Z,1013.35
2023-09-27T03:33:25.133Z,1013.36
2023-09-27T03:33:57.560Z,1013.37
2023-09-27T03:34:30.041Z,1013.37
2023-09-27T03:35:02.586Z,1013.39
2023-09-27T03:35:35.108Z,1013.39
2023-09-27T03:36:07.552Z,1013.39
2023-09-27T03:36:40.023Z,1013.39
2023-09-27T03:37:12.510Z,1013.39
2023-09-27T03:37:45.014Z,1013.41
2023-09-27T03:38:17.605Z,1013.42
2023-09-27T03:38:50.153Z,1013.40
2023-09-27T03:39:22.592Z,1013.41
2023-09-27T03:39:55.069Z,1013.41
2023-09-27T03:40:27.493Z,1013.41
2023-09-27T03:41:00.037Z,1013.40
2023-09-27T03:41:32.561Z,1013.41
2023-09-27T03:42:05.099Z,1013.42
2023-09-27T03:42:37.480Z,1013.42
2023-09-27T03:43:09.953Z,1013.42
2023-09-27T03:43:42.472Z,1013.43
2023-09-27T03:44:14.980Z,1013.43
2023-09-27T03:44:47.458Z,1013.45
2023-09-27T03:45:19.959Z,1013.45
2023-09-27T03:45:52.398Z,1013.45
2023-09-27T03:46:24.925Z,1013.45
2023-09-27T03:46:57.532Z,1013.45
2023-09-27T03:47:29.991Z,1013.45
2023-09-27T03:48:02.441Z,1013.44
2023-09-27T03:48:34.886Z,1013.44
2023-09-27T03:49:07.302Z,1013.45
2023-09-27T03:49:39.790Z,1013.46
2023-09-27T03:50:12.260Z,1013.49
2023-09-27T03:50:44.693Z,1013.49
2023-09-27T03:51:17.188Z,1013.51
2023-09-27T03:51:49.643Z,1013.52
2023-09-27T03:52:22.108Z,1013.53
2023-09-27T03:52:54.615Z,1013.56
2023-09-27T03:53:27.020Z,1013.58
2023-09-27T03:53:59.535Z,1013.58
2023-09-27T03:54:32.006Z,1013.59
2023-09-27T03:55:04.474Z,1013.59
2023-09-27T03:55:36.943Z,1013.60
2023-09-27T03:56:09.466Z,1013.60
2023-09-27T03:56:41.918Z,1013.59
2023-09-27T03:57:14.393Z,1013.60
2023-09-27T03:57:46.877Z,1013.61
2023-09-27T03:58:19.307Z,1013.62
2023-09-27T03:58:51.912Z,1013.63
2023-09-27T03:59:24.277Z,1013.62
2023-09-27T03:59:56.775Z,1013.64
2023-09-27T04:00:29.226Z,1013.64
2023-09-27T04:01:01.692Z,1013.64
2023-09-27T04:01:34.276Z,1013.63
2023-09-27T04:02:06.736Z,1013.62
2023-09-27T04:02:39.319Z,1013.62
2023-09-27T04:03:11.906Z,1013.60
2023-09-27T04:03:44.417Z,1013.58
2023-09-27T04:04:16.809Z,1013.57
2023-09-27T04:04:49.288Z,1013.57
2023-09-27T04:05:21.889Z,1013.59
2023-09-27T04:05:54.349Z,1013.58
2023-09-27T04:06:26.804Z,1013.60
2023-09-27T04:06:59.296Z,1013.60
2023-09-27T04:07:31.796Z,1013.60
2023-09-27T04:08:04.360Z,1013.62
2023-09-27T04:08:36.862Z,1013.61
2023-09-27T04:09:09.325Z,1013.64
2023-09-27T04:09:41.850Z,1013.65
2023-09-27T04:10:14.391Z,1013.64
2023-09-27T04:10:46.845Z,1013.66
2023-09-27T04:11:19.348Z,1013.67
2023-09-27T04:11:51.846Z,1013.66
2023-09-27T04:12:24.344Z,1013.65
2023-09-27T04:12:56.932Z,1013.64
2023-09-27T04:13:29.444Z,1013.63
2023-09-27T04:14:01.970Z,1013.61
2023-09-27T04:14:34.544Z,1013.58
2023-09-27T04:15:07.007Z,1013.59
2023-09-27T04:15:39.561Z,1013.58
2023-09-27T04:16:12.132Z,1013.56
2023-09-27T04:16:44.539Z,1013.56
2023-09-27T04:17:17.066Z,1013.57
2023-09-27T04:17:49.603Z,1013.56
2023-09-27T04:18:22.098Z,1013.57
2023-09-27T04:18:54.803Z,1013.58
2023-09-27T04:19:27.024Z,1013.57
2023-09-27T04:19:59.527Z,1013.59
2023-09-27T04:20:33.587Z,1013.59
2023-09-27T04:21:04.402Z,1013.59
2023-09-27T04:21:36.869Z,1013.59
2023-09-27T04:22:09.447Z,1013.58
2023-09-27T04:22:41.974Z,1013.58
2023-09-27T04:23:14.506Z,1013.58
2023-09-27T04:23:46.880Z,1013.57
2023-09-27T04:24:19.363Z,1013.56
2023-09-27T04:24:51.813Z,1013.57
2023-09-27T04:25:24.297Z,1013.55
2023-09-27T04:25:56.789Z,1013.54
2023-09-27T04:26:29.339Z,1013.52
2023-09-27T04:27:01.771Z,1013.51
2023-09-27T04:27:34.297Z,1013.50
2023-09-27T04:28:06.813Z,1013.49
2023-09-27T04:28:39.309Z,1013.46
2023-09-27T04:29:11.793Z,1013.48
2023-09-27T04:29:44.264Z,1013.45
2023-09-27T04:30:16.686Z,1013.44
2023-09-27T04:30:49.219Z,1013.45
2023-09-27T04:31:21.774Z,1013.46
2023-09-27T04:31:54.246Z,1013.46
2023-09-27T04:32:26.853Z,1013.47
2023-09-27T04:32:59.196Z,1013.48
2023-09-27T04:33:31.637Z,1013.48
2023-09-27T04:34:04.124Z,1013.50
2023-09-27T04:34:36.592Z,1013.51
2023-09-27T04:35:09.132Z,1013.49
2023-09-27T04:35:41.678Z,1013.52
2023-09-27T04:36:14.090Z,1013.50
2023-09-27T04:36:46.532Z,1013.52
2023-09-27T04:37:19.047Z,1013.50
2023-09-27T04:37:51.590Z,1013.50
2023-09-27T04:38:24.034Z,1013.50
2023-09-27T04:38:56.528Z,1013.49
2023-09-27T04:39:28.966Z,1013.47
2023-09-27T04:40:01.466Z,1013.47
2023-09-27T04:40:33.918Z,1013.45
2023-09-27T04:41:06.483Z,1013.44
2023-09-27T04:41:38.990Z,1013.43
2023-09-27T04:42:11.455Z,1013.44
2023-09-27T04:42:43.926Z,1013.44
2023-09-27T04:43:16.581Z,1013.44
2023-09-27T04:43:49.047Z,1013.44
2023-09-27T04:44:21.545Z,1013.44
2023-09-27T04:44:54.023Z,1013.46
2023-09-27T04:45:26.488Z,1013.45
2023-09-27T04:45:59.002Z,1013.46
2023-09-27T04:46:31.448Z,1013.47
2023-09-27T04:47:03.967Z,1013.49
2023-09-27T04:47:36.569Z,1013.48
2023-09-27T04:48:09.020Z,1013.49
2023-09-27T04:48:41.405Z,1013.48
2023-09-27T04:49:13.859Z,1013.49
2023-09-27T04:49:46.342Z,1013.48
2023-09-27T04:50:18.918Z,1013.47
2023-09-27T04:50:51.376Z,1013.45
2023-09-27T04:51:23.856Z,1013.44
2023-09-27T04:51:56.286Z,1013.42
2023-09-27T04:52:28.761Z,1013.44
2023-09-27T04:53:01.281Z,1013.43
2023-09-27T04:53:33.748Z,1013.42
2023-09-27T04:54:06.187Z,1013.45
2023-09-27T04:54:38.652Z,1013.44
2023-09-27T04:55:11.167Z,1013.46
2023-09-27T04:55:43.715Z,1013.48
2023-09-27T04:56:16.349Z,1013.49
2023-09-27T04:56:48.766Z,1013.50
2023-09-27T04:57:21.308Z,1013.52
2023-09-27T04:57:53.773Z,1013.53
2023-09-27T04:58:26.268Z,1013.54
2023-09-27T04:58:58.813Z,1013.53
2023-09-27T04:59:31.310Z,1013.54
2023-09-27T05:00:03.697Z,1013.55
2023-09-27T05:00:36.227Z,1013.55
2023-09-27T05:01:08.810Z,1013.56
2023-09-27T05:01:41.236Z,1013.56
2023-09-27T05:02:13.727Z,1013.57
2023-09-27T05:02:46.303Z,1013.56
2023-09-27T05:03:18.747Z,1013.59
2023-09-27T05:03:51.196Z,1013.60
2023-09-27T05:04:23.723Z,1013.60
2023-09-27T05:04:56.174Z,1013.60
2023-09-27T05:05:28.761Z,1013.60
2023-09-27T05:06:01.179Z,1013.59
2023-09-27T05:06:33.664Z,1013.60
2023-09-27T05:07:06.201Z,1013.63
2023-09-27T05:07:38.676Z,1013.62
2023-09-27T05:08:11.182Z,1013.63
2023-09-27T05:08:43.730Z,1013.62
2023-09-27T05:09:16.193Z,1013.63
2023-09-27T05:09:48.695Z,1013.62
2023-09-27T05:10:21.194Z,1013.62
2023-09-27T05:10:53.699Z,1013.64
2023-09-27T05:11:26.265Z,1013.65
2023-09-27T05:11:59.454Z,1013.66
2023-09-27T05:12:31.921Z,1013.66
2023-09-27T05:13:04.415Z,1013.68
2023-09-27T05:13:36.902Z,1013.68
2023-09-27T05:14:09.453Z,1013.68
2023-09-27T05:14:42.002Z,1013.70
2023-09-27T05:15:14.444Z,1013.71
2023-09-27T05:15:46.922Z,1013.73
2023-09-27T05:16:19.483Z,1013.74
2023-09-27T05:16:51.959Z,1013.75
2023-09-27T05:17:24.525Z,1013.75
2023-09-27T05:17:57.089Z,1013.73
2023-09-27T05:18:29.650Z,1013.74
2023-09-27T05:19:01.950Z,1013.72
2023-09-27T05:19:34.486Z,1013.71
2023-09-27T05:20:06.970Z,1013.70
2023-09-27T05:20:39.462Z,1013.68
2023-09-27T05:21:12.022Z,1013.66
2023-09-27T05:21:44.580Z,1013.66
2023-09-27T05:22:17.056Z,1013.66
2023-09-27T05:22:49.551Z,1013.64
2023-09-27T05:23:22.023Z,1013.61
2023-09-27T05:23:54.634Z,1013.61
2023-09-27T05:24:27.217Z,1013.60
2023-09-27T05:24:59.752Z,1013.59
2023-09-27T05:25:32.273Z,1013.60
2023-09-27T05:26:04.795Z,1013.58
2023-09-27T05:26:37.984Z,1013.58
2023-09-27T05:27:10.378Z,1013.58
2023-09-27T05:27:42.846Z,1013.58
2023-09-27T05:28:15.334Z,1013.57
2023-09-27T05:28:47.854Z,1013.57
2023-09-27T05:29:20.335Z,1013.58
2023-09-27T05:29:52.826Z,1013.58
2023-09-27T05:30:25.365Z,1013.60
2023-09-27T05:30:57.994Z,1013.61
2023-09-27T05:31:30.500Z,1013.62
2023-09-27T05:32:02.956Z,1013.62
2023-09-27T05:32:35.430Z,1013.63
2023-09-27T05:33:07.912Z,1013.61
2023-09-27T05:33:40.433Z,1013.60
2023-09-27T05:34:12.954Z,1013.59
2023-09-27T05:34:45.476Z,1013.60
2023-09-27T05:35:18.017Z,1013.59
2023-09-27T05:35:50.465Z,1013.58
2023-09-27T05:36:22.955Z,1013.57
2023-09-27T05:36:55.485Z,1013.57
2023-09-27T05:37:28.016Z,1013.57
2023-09-27T05:38:00.616Z,1013.59
2023-09-27T05:38:33.096Z,1013.60
2023-09-27T05:39:05.606Z,1013.61
2023-09-27T05:39:38.108Z,1013.62
2023-09-27T05:40:10.647Z,1013.63
2023-09-27T05:40:43.051Z,1013.66
2023-09-27T05:41:15.606Z,1013.69
2023-09-27T05:41:48.076Z,1013.71
2023-09-27T05:42:20.550Z,1013.71
2023-09-27T05:42:52.997Z,1013.73
2023-09-27T05:43:25.575Z,1013.75
2023-09-27T05:43:58.118Z,1013.75
2023-09-27T05:44:30.670Z,1013.75
2023-09-27T05:45:03.148Z,1013.77
2023-09-27T05:45:35.668Z,1013.77
2023-09-27T05:46:08.214Z,1013.76
2023-09-27T05:46:40.724Z,1013.78
2023-09-27T05:47:13.152Z,1013.78
2023-09-27T05:47:45.625Z,1013.79
2023-09-27T05:48:18.023Z,1013.79
2023-09-27T05:48:50.696Z,1013.83
2023-09-27T05:49:23.031Z,1013.83
2023-09-27T05:49:55.549Z,1013.87
2023-09-27T05:50:29.034Z,1013.89
2023-09-27T05:51:01.558Z,1013.92
2023-09-27T05:51:34.081Z,1013.94
2023-09-27T05:52:06.601Z,1013.96
2023-09-27T05:52:39.135Z,1013.98
2023-09-27T05:53:11.701Z,1013.98
2023-09-27T05:53:44.179Z,1013.98
2023-09-27T05:54:16.674Z,1014.00
2023-09-27T05:54:49.190Z,1014.01
2023-09-27T05:55:21.660Z,1014.01
2023-09-27T05:55:54.149Z,1014.03
2023-09-27T05:56:26.728Z,1014.02
2023-09-27T05:56:59.106Z,1014.03
2023-09-27T05:57:31.603Z,1014.06
2023-09-27T05:58:04.137Z,1014.05
2023-09-27T05:58:36.583Z,1014.07
2023-09-27T05:59:09.087Z,1014.08
2023-09-27T05:59:41.581Z,1014.11
2023-09-27T06:00:13.957Z,1014.11
2023-09-27T06:00:46.548Z,1014.11
2023-09-27T06:01:19.045Z,1014.12
2023-09-27T06:01:52.874Z,1014.15
2023-09-27T06:02:23.961Z,1014.14
2023-09-27T06:02:56.605Z,1014.16
2023-09-27T06:03:28.969Z,1014.16
2023-09-27T06:04:01.450Z,1014.15
2023-09-27T06:04:33.918Z,1014.15
2023-09-27T06:05:06.460Z,1014.16
2023-09-27T06:05:39.027Z,1014.16
2023-09-27T06:06:11.469Z,1014.16
2023-09-27T06:06:43.984Z,1014.16
2023-09-27T06:07:16.627Z,1014.17
2023-09-27T06:07:49.050Z,1014.18
2023-09-27T06:08:21.802Z,1014.18
2023-09-27T06:08:54.487Z,1014.19
2023-09-27T06:09:26.744Z,1014.19
2023-09-27T06:09:59.240Z,1014.19
2023-09-27T06:10:31.680Z,1014.20
2023-09-27T06:11:04.160Z,1014.19
2023-09-27T06:11:36.654Z,1014.19
2023-09-27T06:12:09.082Z,1014.18
2023-09-27T06:12:41.541Z,1014.20
2023-09-27T06:13:14.033Z,1014.18
2023-09-27T06:13:46.478Z,1014.18
2023-09-27T06:14:19.097Z,1014.16
2023-09-27T06:14:51.480Z,1014.17
2023-09-27T06:15:23.972Z,1014.18
2023-09-27T06:15:56.495Z,1014.17
2023-09-27T06:16:28.951Z,1014.16
2023-09-27T06:17:01.600Z,1014.16
2023-09-27T06:17:34.206Z,1014.15
2023-09-27T06:18:06.629Z,1014.16
2023-09-27T06:18:39.044Z,1014.15
2023-09-27T06:19:11.517Z,1014.14
2023-09-27T06:19:44.048Z,1014.14
2023-09-27T06:20:16.603Z,1014.15
2023-09-27T06:20:49.076Z,1014.13
2023-09-27T06:21:21.577Z,1014.12
2023-09-27T06:21:54.041Z,1014.12
2023-09-27T06:22:26.613Z,1014.12
2023-09-27T06:22:59.184Z,1014.11
2023-09-27T06:23:31.615Z,1014.11
2023-09-27T06:24:04.045Z,1014.10
2023-09-27T06:24:36.646Z,1014.09
2023-09-27T06:25:09.102Z,1014.06
2023-09-27T06:25:41.547Z,1014.06
2023-09-27T06:26:14.076Z,1014.05
2023-09-27T06:26:46.461Z,1014.06
2023-09-27T06:27:18.907Z,1014.05
2023-09-27T06:27:51.424Z,1014.03
2023-09-27T06:28:23.941Z,1014.02
2023-09-27T06:28:56.375Z,1014.03
2023-09-27T06:29:28.833Z,1014.03
2023-09-27T06:30:01.312Z,1014.02
2023-09-27T06:30:33.752Z,1014.02
2023-09-27T06:31:06.268Z,1014.03
2023-09-27T06:31:38.734Z,1014.03
2023-09-27T06:32:11.234Z,1014.04
2023-09-27T06:32:43.706Z,1014.03
2023-09-27T06:33:16.120Z,1014.04